Put In Bay, Ohio
Current Conditions -  °F | °C
As of 4:13 AM on Wednesday 22 Oct 2014 (Local Time) from KPCW Reporting Station
Overcast Overcast  
Wind Chill: 41°   Ceiling: 1700
Heat Index: 46°   Visibility: 10mi
Dew Point: 39°   Wind: 12mph
Humidity: 76%   Direction: 50°NE
Pressure: 30.18"   Gusts: NA
Location:  41.65°N, 82.82°W
Report Text: KPCW 220813Z AUTO 05010KT 10SM OVC017 08/04 A3018 RMK AO2 $
Loading
Personal Weather Stations






























Interactive Weather Map
Tropical Storm Tracking
New forecast layout! Learn more

10-Day Weather Forecast

Advertisements
Track Severe Weather on mobile